Time;durP1;ratioP1;P1;durP2;ratioP2;P2;SDS_P1;SDS_P2;PMS_P1;PMS_P2;Temp;Humidity;BMP_temperature;BMP_pressure;BME280_temperature;BME280_humidity;BME280_pressure;Samples;Min_cycle;Max_cycle;Signal;HPM_P1;HPM_P2
2021/11/02 00:01:42;;;;;;;9.95;6.30;;;7.20;92.20;;;;;;5007498;28;20092;-76
2021/11/02 00:04:08;;;;;;;10.85;6.38;;;7.20;92.30;;;;;;5007362;28;20125;-74
2021/11/02 00:06:35;;;;;;;11.38;6.70;;;7.20;92.30;;;;;;5007578;28;20092;-75
2021/11/02 00:09:05;;;;;;;10.68;7.20;;;7.20;92.40;;;;;;5010075;28;20026;-75
2021/11/02 00:11:31;;;;;;;12.77;6.88;;;7.20;92.40;;;;;;5006257;28;20050;-74
2021/11/02 00:14:01;;;;;;;12.65;6.68;;;7.20;92.40;;;;;;5006945;28;20481;-74
2021/11/02 00:16:27;;;;;;;12.60;7.25;;;7.20;92.30;;;;;;5006607;28;20061;-73
2021/11/02 00:19:02;;;;;;;11.15;6.80;;;7.20;92.20;;;;;;5008098;28;20060;-74
2021/11/02 00:21:31;;;;;;;10.32;7.15;;;7.20;92.10;;;;;;5006876;28;20065;-75
2021/11/02 00:24:09;;;;;;;10.35;6.53;;;7.10;92.10;;;;;;5003077;28;20053;-74
2021/11/02 00:26:35;;;;;;;11.07;6.60;;;7.20;92.10;;;;;;5008357;28;20453;-73
2021/11/02 00:29:00;;;;;;;11.45;7.50;;;7.10;92.00;;;;;;5008445;28;20452;-74
2021/11/02 00:31:26;;;;;;;11.00;6.57;;;7.10;92.10;;;;;;5008656;28;20038;-74
2021/11/02 00:33:52;;;;;;;13.20;7.32;;;7.00;92.20;;;;;;5009429;28;20065;-72
2021/11/02 00:36:17;;;;;;;14.73;7.00;;;7.00;92.30;;;;;;5007917;28;20034;-73
2021/11/02 00:38:43;;;;;;;9.93;7.10;;;7.00;92.30;;;;;;5006249;28;20034;-73
2021/11/02 00:41:09;;;;;;;11.07;6.55;;;7.00;92.40;;;;;;5010711;28;20034;-74
2021/11/02 00:43:36;;;;;;;10.88;6.72;;;7.00;92.40;;;;;;5006407;28;20042;-74
2021/11/02 00:46:02;;;;;;;11.18;7.13;;;6.90;92.40;;;;;;5021593;28;20038;-73
2021/11/02 00:48:28;;;;;;;10.88;6.57;;;7.00;92.40;;;;;;5008798;28;20042;-75
2021/11/02 00:50:54;;;;;;;12.10;6.82;;;6.90;92.40;;;;;;5006384;28;20065;-73
2021/11/02 00:53:21;;;;;;;14.40;8.43;;;6.80;92.50;;;;;;5006591;28;20481;-73
2021/11/02 00:55:48;;;;;;;12.57;7.35;;;6.90;92.50;;;;;;5009012;28;20038;-74
2021/11/02 00:58:14;;;;;;;10.80;6.70;;;6.80;92.50;;;;;;5008305;28;20073;-73
2021/11/02 01:00:40;;;;;;;11.88;6.97;;;6.90;92.60;;;;;;5005905;28;20054;-73
2021/11/02 01:03:07;;;;;;;11.57;7.47;;;6.90;92.60;;;;;;5007404;28;20038;-73
2021/11/02 01:05:34;;;;;;;12.88;7.03;;;6.80;92.50;;;;;;5007880;28;20034;-75
2021/11/02 01:08:00;;;;;;;12.10;7.53;;;6.80;92.50;;;;;;5008620;28;20447;-73
2021/11/02 01:10:26;;;;;;;11.88;6.55;;;6.80;92.50;;;;;;5022228;28;20046;-74
2021/11/02 01:12:53;;;;;;;10.77;7.50;;;6.80;92.60;;;;;;5007445;28;20053;-74
2021/11/02 01:15:23;;;;;;;13.45;7.15;;;6.70;92.60;;;;;;5003508;28;20022;-76
2021/11/02 01:17:48;;;;;;;12.65;6.82;;;6.70;92.70;;;;;;5006274;28;20046;-73
2021/11/02 01:20:15;;;;;;;12.95;7.88;;;6.70;92.70;;;;;;5007748;28;20339;-74
2021/11/02 01:22:42;;;;;;;14.32;9.18;;;6.70;92.80;;;;;;5007728;28;20053;-74
2021/11/02 01:25:09;;;;;;;13.35;8.50;;;6.70;92.70;;;;;;5024327;28;20034;-73
2021/11/02 01:27:35;;;;;;;11.05;7.20;;;6.70;92.80;;;;;;5009778;28;20533;-74
2021/11/02 01:30:01;;;;;;;11.75;7.70;;;6.70;92.80;;;;;;5007664;28;20121;-75
2021/11/02 01:32:27;;;;;;;12.13;7.05;;;6.70;92.90;;;;;;5005100;28;20046;-73
2021/11/02 01:34:53;;;;;;;16.08;9.98;;;6.60;92.90;;;;;;5004955;28;20109;-74
2021/11/02 01:37:19;;;;;;;13.32;7.75;;;6.70;92.90;;;;;;5006578;28;20038;-74
2021/11/02 01:39:44;;;;;;;13.60;8.13;;;6.70;92.90;;;;;;5008078;28;20045;-75
2021/11/02 01:42:10;;;;;;;13.05;8.27;;;6.70;92.90;;;;;;5007957;28;20068;-73
2021/11/02 01:44:36;;;;;;;15.02;8.13;;;6.70;92.90;;;;;;5002832;28;20442;-75
2021/11/02 01:47:04;;;;;;;13.02;9.05;;;6.70;92.90;;;;;;5007313;28;20054;-74
2021/11/02 01:49:31;;;;;;;13.82;8.32;;;6.60;93.00;;;;;;5007633;28;20026;-75
2021/11/02 01:51:56;;;;;;;17.40;9.30;;;6.60;93.00;;;;;;5006876;28;20508;-74
2021/11/02 01:54:22;;;;;;;13.10;9.48;;;6.60;93.10;;;;;;5022471;28;20037;-73
2021/11/02 01:56:49;;;;;;;14.07;9.00;;;6.60;93.10;;;;;;5023181;28;20045;-73
2021/11/02 01:59:15;;;;;;;16.70;9.85;;;6.60;93.10;;;;;;5003705;28;20114;-73
2021/11/02 02:01:50;;;;;;;13.85;9.65;;;6.60;93.20;;;;;;5008683;28;20400;-73
2021/11/02 02:04:34;;;;;;;;;;;6.70;93.20;;;;;;5020900;28;20049;-74
2021/11/02 02:07:13;;;;;;;15.73;10.65;;;6.60;93.20;;;;;;5017749;28;20281;-76
2021/11/02 02:10:09;;;;;;;14.38;10.07;;;6.70;93.20;;;;;;5011384;28;20034;-73
2021/11/02 02:12:48;;;;;;;15.65;11.00;;;6.70;93.20;;;;;;5022227;28;20085;-74
2021/11/02 02:15:50;;;;;;;17.73;10.82;;;6.80;93.30;;;;;;5009527;28;20037;-73
2021/11/02 02:18:34;;;;;;;17.65;11.10;;;6.80;93.20;;;;;;5000865;28;20104;-74
2021/11/02 02:21:25;;;;;;;17.05;10.98;;;6.80;93.20;;;;;;5006664;28;20038;-73
2021/11/02 02:23:51;;;;;;;21.98;12.63;;;6.90;93.20;;;;;;5006995;28;20544;-74
2021/11/02 02:26:42;;;;;;;16.50;11.38;;;6.80;93.10;;;;;;5011713;28;20054;-73
2021/11/02 02:29:09;;;;;;;16.33;11.15;;;6.80;93.20;;;;;;5013232;28;20065;-74
2021/11/02 02:31:38;;;;;;;19.92;11.60;;;6.80;93.10;;;;;;5006116;28;20033;-74
2021/11/02 02:34:11;;;;;;;18.10;11.60;;;6.80;93.10;;;;;;5014504;28;20048;-73
2021/11/02 02:36:38;;;;;;;19.58;11.45;;;6.80;93.10;;;;;;5009058;28;20371;-74
2021/11/02 02:39:05;;;;;;;17.45;10.82;;;6.80;93.10;;;;;;5008075;28;20046;-74
2021/11/02 02:41:32;;;;;;;21.27;12.80;;;6.80;93.10;;;;;;5011536;28;20038;-74
2021/11/02 02:43:59;;;;;;;21.80;11.80;;;6.80;93.30;;;;;;5012427;28;20042;-73
2021/11/02 02:46:27;;;;;;;16.92;11.07;;;6.90;93.30;;;;;;5012212;28;20128;-73
2021/11/02 02:48:55;;;;;;;20.00;11.77;;;6.80;93.30;;;;;;5009982;28;20468;-75
2021/11/02 02:51:22;;;;;;;18.02;10.80;;;6.90;93.40;;;;;;5009584;28;20485;-74
2021/11/02 02:53:49;;;;;;;18.40;11.20;;;6.90;93.30;;;;;;5026488;28;20045;-73
2021/11/02 02:56:16;;;;;;;19.02;12.32;;;6.90;93.30;;;;;;5010338;28;20164;-76
2021/11/02 02:58:45;;;;;;;21.42;12.63;;;7.00;93.30;;;;;;5009340;28;20555;-74
2021/11/02 03:01:13;;;;;;;20.58;11.93;;;7.00;93.30;;;;;;5012906;28;20084;-73
2021/11/02 03:03:45;;;;;;;19.27;11.38;;;7.10;93.30;;;;;;5011877;28;20029;-74
2021/11/02 03:06:13;;;;;;;20.42;12.65;;;7.00;93.30;;;;;;5009999;28;20057;-75
2021/11/02 03:08:39;;;;;;;21.50;11.45;;;7.10;93.40;;;;;;5025292;28;20111;-73
2021/11/02 03:11:07;;;;;;;19.75;11.25;;;7.10;93.40;;;;;;5010497;28;20081;-74
2021/11/02 03:13:34;;;;;;;18.48;12.05;;;7.20;93.40;;;;;;5025932;28;20053;-74
2021/11/02 03:16:06;;;;;;;20.13;11.10;;;7.20;93.30;;;;;;5010782;28;20042;-73
2021/11/02 03:48:55;;;;;;;19.83;13.63;;;7.50;92.90;;;;;;5006962;28;20100;-74
2021/11/02 05:07:34;;;;;;;29.70;17.67;;;8.10;92.50;;;;;;5004446;28;20775;-73
2021/11/02 05:56:26;;;;;;;21.98;14.45;;;8.20;92.40;;;;;;5008554;28;20034;-74
2021/11/02 06:02:16;;;;;;;21.58;13.85;;;8.20;92.20;;;;;;5005413;28;20374;-73
2021/11/02 06:07:01;;;;;;;20.73;13.65;;;8.20;92.30;;;;;;5005763;28;20042;-73
2021/11/02 06:09:53;;;;;;;18.15;14.18;;;8.20;92.30;;;;;;5006212;28;20053;-74
2021/11/02 06:29:03;;;;;;;18.10;12.30;;;8.30;92.30;;;;;;5011839;28;20267;-73
2021/11/02 06:31:33;;;;;;;18.20;13.07;;;8.30;92.30;;;;;;5007071;28;20137;-73
2021/11/02 06:37:00;;;;;;;17.50;13.25;;;8.40;92.20;;;;;;5006660;28;20512;-73
2021/11/02 06:48:08;;;;;;;18.05;11.55;;;8.30;92.20;;;;;;5008198;28;20053;-73
2021/11/02 06:51:27;;;;;;;23.27;12.93;;;8.40;92.20;;;;;;5003675;28;20540;-73
2021/11/02 07:15:14;;;;;;;18.60;11.05;;;8.40;92.30;;;;;;5006317;28;20516;-74
2021/11/02 07:19:09;;;;;;;15.82;11.13;;;8.40;92.30;;;;;;5009117;28;20074;-74
2021/11/02 07:22:11;;;;;;;16.40;10.65;;;8.40;92.20;;;;;;5009582;28;20323;-74
2021/11/02 07:24:35;;;;;;;15.00;10.85;;;8.40;92.20;;;;;;5008507;28;20112;-75
2021/11/02 08:45:49;;;;;;;16.50;13.32;;;9.70;90.80;;;;;;5001547;28;20040;-75
2021/11/02 08:48:16;;;;;;;16.73;13.93;;;9.80;90.30;;;;;;5004585;28;20049;-72
2021/11/02 08:50:43;;;;;;;14.65;13.02;;;9.80;89.80;;;;;;5004185;28;20492;-70
2021/11/02 08:53:11;;;;;;;14.23;12.00;;;9.70;89.40;;;;;;5006276;28;20881;-71
2021/11/02 08:55:37;;;;;;;16.08;12.13;;;9.60;89.10;;;;;;5020243;28;20037;-71
2021/11/02 08:58:04;;;;;;;12.77;10.60;;;9.60;89.30;;;;;;5005176;28;20040;-71
2021/11/02 09:00:30;;;;;;;15.85;11.23;;;9.50;89.30;;;;;;5004043;28;20022;-70
2021/11/02 09:03:16;;;;;;;12.70;11.30;;;9.40;89.10;;;;;;5004006;28;20065;-70
2021/11/02 09:05:44;;;;;;;13.20;10.75;;;9.40;89.50;;;;;;5004556;28;20038;-70
2021/11/02 09:08:10;;;;;;;11.82;10.02;;;9.30;89.50;;;;;;5001424;28;20069;-70
2021/11/02 09:10:40;;;;;;;13.38;9.98;;;9.30;89.50;;;;;;5002864;28;20037;-71
2021/11/02 09:13:08;;;;;;;13.23;9.10;;;9.20;89.50;;;;;;5006061;28;20057;-71
2021/11/02 09:15:36;;;;;;;12.65;9.20;;;9.20;89.70;;;;;;5003815;28;20620;-70
2021/11/02 09:18:04;;;;;;;10.80;8.13;;;9.20;89.70;;;;;;5003201;28;20053;-70
2021/11/02 09:20:30;;;;;;;11.90;8.80;;;9.20;89.80;;;;;;5004119;28;20092;-70
2021/11/02 09:22:56;;;;;;;11.88;8.82;;;9.20;89.80;;;;;;5002578;28;20046;-74
2021/11/02 09:25:23;;;;;;;11.88;9.25;;;9.20;89.60;;;;;;5004971;28;20022;-70
2021/11/02 09:27:49;;;;;;;15.10;10.30;;;9.10;89.80;;;;;;5007590;28;20073;-71
2021/11/02 09:30:17;;;;;;;14.57;10.80;;;9.10;90.00;;;;;;5002741;28;20042;-72
2021/11/02 09:32:49;;;;;;;12.90;10.82;;;9.20;90.20;;;;;;5008969;28;20041;-70
2021/11/02 09:35:16;;;;;;;15.68;11.65;;;9.20;90.20;;;;;;5002122;28;20038;-70
2021/11/02 09:37:55;;;;;;;14.05;11.43;;;9.20;90.20;;;;;;5004414;28;20049;-70
2021/11/02 09:40:29;;;;;;;15.35;12.27;;;9.10;90.20;;;;;;5004224;28;20180;-70
2021/11/02 09:42:57;;;;;;;16.20;12.93;;;9.10;90.60;;;;;;5003592;28;20048;-71
2021/11/02 09:45:59;;;;;;;16.15;13.05;;;9.00;90.80;;;;;;5001856;28;20057;-70
2021/11/02 09:48:49;;;;;;;15.00;12.10;;;9.10;90.90;;;;;;4960142;28;20074;-69
2021/11/02 09:51:27;;;;;;;16.48;12.63;;;9.10;91.00;;;;;;4999001;28;20057;-69
2021/11/02 09:54:12;;;;;;;17.45;12.80;;;9.10;90.90;;;;;;5002368;28;20091;-72
2021/11/02 09:57:18;;;;;;;16.20;11.93;;;9.20;91.00;;;;;;5004761;28;20034;-70
2021/11/02 09:59:56;;;;;;;13.80;11.50;;;9.20;90.90;;;;;;5015944;28;20038;-70
2021/11/02 10:02:45;;;;;;;14.70;11.45;;;9.20;90.90;;;;;;5002652;28;20040;-70
2021/11/02 10:05:34;;;;;;;14.98;12.00;;;9.20;90.90;;;;;;5005029;28;20478;-71
2021/11/02 10:08:02;;;;;;;15.80;13.18;;;9.30;91.00;;;;;;5005509;28;20050;-70
2021/11/02 10:10:39;;;;;;;16.60;13.38;;;9.40;90.80;;;;;;5003714;28;20048;-72
2021/11/02 10:13:22;;;;;;;13.52;11.27;;;9.40;90.70;;;;;;5002638;28;20046;-69
2021/11/02 10:16:00;;;;;;;16.77;11.05;;;9.50;90.70;;;;;;4997728;28;20034;-71
2021/11/02 10:18:48;;;;;;;14.63;10.75;;;9.60;90.70;;;;;;5002036;28;20413;-73
2021/11/02 10:21:49;;;;;;;13.50;11.00;;;9.60;90.60;;;;;;5000114;28;20141;-70
2021/11/02 10:24:36;;;;;;;14.45;12.07;;;9.70;90.50;;;;;;5000567;28;20481;-70
2021/11/02 10:27:18;;;;;;;17.10;13.52;;;9.70;90.40;;;;;;5002400;28;20065;-71
2021/11/02 10:29:57;;;;;;;18.15;14.02;;;9.80;90.40;;;;;;5010232;28;20049;-73
2021/11/02 10:32:28;;;;;;;17.38;13.73;;;9.90;90.30;;;;;;5007499;28;20045;-69
2021/11/02 10:35:24;;;;;;;15.60;13.40;;;9.90;90.00;;;;;;5008127;28;20041;-71
2021/11/02 10:38:06;;;;;;;16.00;12.15;;;10.00;89.90;;;;;;4988204;28;20054;-70
2021/11/02 10:40:42;;;;;;;13.27;11.88;;;10.10;89.80;;;;;;5008454;28;20109;-71
2021/11/02 10:43:16;;;;;;;15.95;12.57;;;10.30;89.40;;;;;;5007987;28;20076;-70
2021/11/02 10:45:53;;;;;;;16.85;12.73;;;10.40;89.10;;;;;;5008051;28;20505;-69
2021/11/02 10:48:47;;;;;;;14.13;12.63;;;10.40;89.10;;;;;;5006774;28;20348;-71
2021/11/02 10:51:40;;;;;;;17.30;14.13;;;10.50;88.90;;;;;;5015388;28;20753;-71
2021/11/02 10:54:19;;;;;;;18.85;14.80;;;10.60;88.70;;;;;;5010105;28;20088;-70
2021/11/02 10:57:15;;;;;;;17.30;15.50;;;10.80;88.50;;;;;;5022182;28;20085;-70
2021/11/02 10:59:48;;;;;;;17.35;14.85;;;10.90;87.60;;;;;;5007532;28;20045;-71
2021/11/02 11:02:32;;;;;;;17.77;15.65;;;10.90;87.40;;;;;;5028502;28;20060;-70
2021/11/02 11:05:00;;;;;;;16.90;15.18;;;11.00;87.40;;;;;;5029583;28;20124;-69
2021/11/02 11:07:45;;;;;;;16.80;15.10;;;11.10;86.80;;;;;;5003767;28;20639;-70
2021/11/02 11:10:13;;;;;;;17.75;15.40;;;11.10;86.60;;;;;;5007886;28;21125;-73
2021/11/02 11:12:47;;;;;;;17.70;14.80;;;11.10;86.30;;;;;;5010808;28;20370;-73
2021/11/02 11:15:13;;;;;;;16.75;14.20;;;11.30;86.10;;;;;;5009358;28;20636;-74
2021/11/02 11:17:48;;;;;;;16.27;14.55;;;11.50;86.00;;;;;;5005390;28;20121;-69
2021/11/02 11:20:15;;;;;;;15.35;13.60;;;11.60;85.10;;;;;;5002846;28;20112;-70
2021/11/02 11:22:47;;;;;;;14.50;12.90;;;11.80;85.00;;;;;;5007060;28;20503;-71
2021/11/02 11:25:23;;;;;;;13.82;12.43;;;12.10;84.30;;;;;;5003974;28;20033;-71
2021/11/02 11:27:55;;;;;;;13.35;11.80;;;12.40;84.10;;;;;;5007553;28;20054;-73
2021/11/02 11:30:22;;;;;;;12.82;9.65;;;12.80;81.70;;;;;;5005908;28;20053;-69
2021/11/02 11:32:48;;;;;;;14.48;10.32;;;12.60;79.80;;;;;;5009519;28;20037;-72
2021/11/02 11:35:14;;;;;;;11.10;8.90;;;12.60;79.70;;;;;;4998928;28;20061;-72
2021/11/02 11:37:50;;;;;;;12.25;8.98;;;12.60;80.70;;;;;;4996230;28;20339;-72
2021/11/02 11:40:18;;;;;;;11.27;9.30;;;12.70;79.80;;;;;;4993584;28;20044;-76
2021/11/02 11:42:56;;;;;;;11.13;8.48;;;13.10;79.80;;;;;;4995976;28;20050;-71
2021/11/02 11:45:29;;;;;;;10.73;9.52;;;13.30;79.20;;;;;;5008636;28;20482;-74
2021/11/02 11:48:20;;;;;;;11.30;9.48;;;13.40;77.80;;;;;;4999056;28;20050;-70
2021/11/02 11:50:47;;;;;;;11.70;9.65;;;13.60;78.00;;;;;;4994490;28;20044;-73
2021/11/02 11:53:18;;;;;;;12.00;9.90;;;13.60;78.40;;;;;;4992906;28;20120;-76
2021/11/02 11:55:47;;;;;;;13.23;10.30;;;13.60;78.10;;;;;;4995027;28;20460;-75
2021/11/02 11:58:17;;;;;;;17.27;10.30;;;13.60;77.80;;;;;;4999310;28;20165;-72
2021/11/02 12:01:04;;;;;;;12.88;10.15;;;13.30;78.50;;;;;;5000330;28;20046;-73
2021/11/02 12:03:55;;;;;;;12.23;10.68;;;13.10;78.00;;;;;;5014994;28;20586;-70
2021/11/02 12:06:34;;;;;;;12.60;10.20;;;13.00;78.50;;;;;;4998731;28;20204;-79
2021/11/02 12:09:06;;;;;;;12.63;9.75;;;12.90;78.20;;;;;;5015526;28;20049;-70
2021/11/02 12:11:33;;;;;;;11.32;9.60;;;12.90;79.30;;;;;;4998678;28;20096;-70
2021/11/02 12:14:21;;;;;;;11.85;10.45;;;12.80;79.40;;;;;;4996835;28;20034;-71
2021/11/02 12:16:47;;;;;;;13.65;9.65;;;12.60;80.50;;;;;;5000324;28;20478;-74
2021/11/02 12:19:19;;;;;;;13.05;11.65;;;12.70;80.70;;;;;;4998545;28;20042;-69
2021/11/02 12:21:50;;;;;;;14.25;10.43;;;12.70;80.10;;;;;;5001807;28;20148;-71
2021/11/02 12:24:16;;;;;;;13.40;9.20;;;12.60;80.00;;;;;;4999127;28;20073;-72
2021/11/02 12:26:47;;;;;;;11.73;8.98;;;12.60;78.90;;;;;;5002283;28;20081;-70
2021/11/02 12:29:33;;;;;;;11.23;8.73;;;12.50;78.30;;;;;;5001908;28;20489;-70
2021/11/02 12:32:00;;;;;;;14.40;8.73;;;12.50;79.10;;;;;;4998940;28;20087;-68
2021/11/02 12:34:51;;;;;;;12.90;8.80;;;12.40;79.60;;;;;;5012965;28;20038;-69
2021/11/02 12:37:17;;;;;;;13.50;10.57;;;12.60;80.20;;;;;;5005757;28;20432;-67
2021/11/02 12:39:45;;;;;;;16.42;9.95;;;12.80;78.90;;;;;;4999104;28;20026;-71
2021/11/02 12:42:12;;;;;;;17.15;10.65;;;12.90;78.30;;;;;;5002192;28;20045;-68
2021/11/02 12:44:39;;;;;;;13.77;9.48;;;13.00;78.40;;;;;;4998457;28;20082;-68
2021/11/02 12:47:13;;;;;;;16.55;8.43;;;12.90;76.30;;;;;;4998126;28;20533;-67
2021/11/02 12:49:52;;;;;;;;;;;13.10;77.10;;;;;;5007620;28;20045;-67
2021/11/02 12:52:19;;;;;;;10.75;7.45;;;13.30;75.10;;;;;;4998900;28;20319;-68
2021/11/02 12:55:01;;;;;;;11.60;8.18;;;13.20;75.30;;;;;;5000793;28;20107;-71
2021/11/02 12:57:42;;;;;;;12.50;8.23;;;13.20;75.90;;;;;;4998541;28;20050;-71
2021/11/02 13:00:18;;;;;;;12.68;7.47;;;13.40;74.80;;;;;;4997166;28;20041;-67
2021/11/02 13:02:51;;;;;;;9.43;6.13;;;13.20;74.20;;;;;;5000065;28;20037;-68
2021/11/02 13:05:24;;;;;;;13.38;6.70;;;13.20;74.50;;;;;;4998548;28;20034;-70
2021/11/02 13:08:01;;;;;;;9.75;6.10;;;13.30;74.10;;;;;;4998877;28;20041;-72
2021/11/02 13:10:32;;;;;;;9.43;5.78;;;13.40;73.70;;;;;;5001074;28;20122;-67
2021/11/02 13:13:06;;;;;;;9.75;4.85;;;13.40;74.10;;;;;;5004429;28;20052;-70
2021/11/02 13:15:55;;;;;;;9.07;4.47;;;13.40;72.50;;;;;;5001062;28;20128;-70
2021/11/02 13:18:39;;;;;;;7.25;4.40;;;13.10;72.40;;;;;;4996217;28;20061;-68
2021/11/02 13:21:30;;;;;;;8.75;5.03;;;13.40;72.10;;;;;;5012524;28;20404;-69
2021/11/02 13:24:21;;;;;;;8.32;4.90;;;13.60;70.90;;;;;;4997500;28;20030;-70
2021/11/02 13:26:52;;;;;;;13.70;5.93;;;13.40;71.40;;;;;;4998267;28;20131;-68
2021/11/02 13:29:23;;;;;;;8.98;5.45;;;13.50;71.00;;;;;;4998899;28;20441;-69
2021/11/02 13:31:51;;;;;;;10.27;5.10;;;13.40;71.50;;;;;;5001734;28;20109;-68
2021/11/02 13:34:33;;;;;;;7.65;4.03;;;13.50;71.30;;;;;;5000488;28;20491;-68
2021/11/02 13:37:01;;;;;;;11.05;4.93;;;13.70;70.30;;;;;;5002097;28;20045;-69
2021/11/02 13:39:27;;;;;;;9.95;5.35;;;13.90;69.80;;;;;;5005383;28;20069;-68
2021/11/02 13:41:56;;;;;;;9.40;5.22;;;13.80;69.90;;;;;;4996401;28;20135;-69
2021/11/02 13:44:24;;;;;;;8.02;4.50;;;13.70;69.10;;;;;;4994801;28;20041;-69
2021/11/02 13:46:53;;;;;;;7.68;4.63;;;13.50;68.40;;;;;;4997095;28;20044;-71
2021/11/02 13:49:20;;;;;;;8.77;5.30;;;13.40;67.60;;;;;;5006421;28;20029;-72
2021/11/02 13:51:47;;;;;;;7.82;5.03;;;13.30;67.70;;;;;;5015732;28;20367;-68
2021/11/02 13:54:13;;;;;;;8.90;5.55;;;13.30;69.30;;;;;;5000723;28;20042;-72
2021/11/02 13:56:43;;;;;;;9.65;5.43;;;13.30;71.20;;;;;;5005006;28;20372;-69
2021/11/02 13:59:10;;;;;;;10.48;4.93;;;13.40;70.40;;;;;;5002471;28;20046;-72
2021/11/02 14:01:55;;;;;;;7.75;4.35;;;13.50;70.80;;;;;;5008128;28;20034;-68
2021/11/02 14:04:42;;;;;;;7.47;3.80;;;13.60;70.20;;;;;;5002291;28;20038;-69
2021/11/02 14:07:13;;;;;;;6.38;2.85;;;13.60;69.40;;;;;;5004462;28;20048;-69
2021/11/02 14:09:50;;;;;;;10.25;4.13;;;13.60;68.00;;;;;;5004101;28;20489;-68
2021/11/02 14:12:30;;;;;;;8.85;3.65;;;13.40;69.20;;;;;;5005141;28;20050;-69
2021/11/02 14:15:11;;;;;;;7.38;3.20;;;13.20;70.40;;;;;;5005478;28;20042;-71
2021/11/02 14:18:08;;;;;;;9.13;2.83;;;12.80;72.80;;;;;;4997981;28;20501;-72
2021/11/02 14:20:48;;;;;;;9.65;3.22;;;12.60;73.10;;;;;;5012710;28;20037;-70
2021/11/02 14:23:31;;;;;;;6.60;2.50;;;12.60;73.60;;;;;;4997067;28;20119;-68
2021/11/02 14:26:22;;;;;;;7.75;2.63;;;12.60;73.60;;;;;;5013815;28;20054;-69
2021/11/02 14:28:56;;;;;;;10.20;2.20;;;12.50;73.50;;;;;;4999091;28;20477;-69
2021/11/02 14:31:46;;;;;;;8.65;2.95;;;12.40;73.70;;;;;;4995548;28;20038;-73
2021/11/02 14:34:37;;;;;;;7.15;2.10;;;12.50;73.90;;;;;;4996994;28;20492;-71
2021/11/02 14:37:17;;;;;;;6.63;2.30;;;12.40;73.00;;;;;;5013632;28;20559;-72
2021/11/02 14:40:01;;;;;;;5.25;2.13;;;12.30;73.00;;;;;;5005358;28;20050;-68
2021/11/02 14:42:56;;;;;;;8.25;2.10;;;12.30;73.10;;;;;;5004296;28;20034;-68
2021/11/02 14:45:42;;;;;;;6.22;2.42;;;12.30;73.10;;;;;;5014559;28;20048;-70
2021/11/02 14:48:29;;;;;;;7.28;2.08;;;12.40;73.60;;;;;;5017046;28;20045;-68
2021/11/02 14:51:22;;;;;;;7.85;2.78;;;12.20;73.20;;;;;;5006271;28;20458;-67
2021/11/02 14:53:49;;;;;;;6.28;2.00;;;12.10;74.00;;;;;;4993291;28;20088;-73
2021/11/02 14:56:29;;;;;;;7.53;2.25;;;12.20;74.60;;;;;;5005391;28;20030;-69
2021/11/02 14:58:59;;;;;;;6.43;2.33;;;12.10;74.90;;;;;;5004627;28;20060;-69
2021/11/02 15:01:35;;;;;;;6.60;2.10;;;12.20;74.20;;;;;;5005157;28;20046;-68
2021/11/02 15:04:18;;;;;;;6.97;2.08;;;12.30;73.90;;;;;;5003544;28;20049;-75
2021/11/02 15:06:47;;;;;;;7.13;2.45;;;12.50;73.40;;;;;;5003656;28;20077;-74
2021/11/02 15:09:18;;;;;;;6.00;2.20;;;12.60;74.10;;;;;;5001768;28;20045;-74
2021/11/02 15:11:45;;;;;;;7.60;2.00;;;12.60;73.40;;;;;;5003411;28;21330;-71
2021/11/02 15:14:32;;;;;;;8.00;3.17;;;12.50;73.10;;;;;;5002944;28;20030;-69
2021/11/02 15:17:01;;;;;;;6.75;3.13;;;12.50;71.90;;;;;;5002631;28;20049;-68
2021/11/02 15:19:28;;;;;;;8.18;2.90;;;12.30;72.40;;;;;;5004416;28;20041;-73
2021/11/02 15:22:00;;;;;;;6.15;2.70;;;12.20;72.90;;;;;;5004002;28;20030;-69
2021/11/02 15:24:31;;;;;;;8.32;3.13;;;12.10;72.90;;;;;;5003512;28;20038;-69
2021/11/02 15:27:14;;;;;;;7.82;2.80;;;11.80;73.50;;;;;;5019662;28;20490;-72
2021/11/02 15:29:42;;;;;;;6.18;2.45;;;11.70;73.80;;;;;;5007491;28;20049;-70
2021/11/02 15:32:23;;;;;;;6.50;3.03;;;11.60;74.20;;;;;;5004873;28;20119;-69
2021/11/02 15:34:58;;;;;;;8.77;3.13;;;11.50;74.60;;;;;;5006451;28;20065;-69
2021/11/02 15:37:27;;;;;;;6.75;2.75;;;11.40;75.10;;;;;;4994237;28;20068;-77
2021/11/02 15:39:55;;;;;;;6.68;2.90;;;11.40;75.50;;;;;;4995492;28;20431;-70
2021/11/02 15:42:34;;;;;;;8.40;3.60;;;11.30;76.20;;;;;;4989631;28;20034;-70
2021/11/02 15:45:08;;;;;;;9.55;4.60;;;11.20;76.40;;;;;;4984736;28;20046;-72
2021/11/02 15:47:38;;;;;;;7.65;3.60;;;11.10;77.10;;;;;;4982053;28;20046;-69
2021/11/02 15:50:09;;;;;;;8.65;3.22;;;11.10;77.60;;;;;;4983301;28;20033;-71
2021/11/02 15:52:37;;;;;;;12.02;3.72;;;11.10;78.30;;;;;;4998577;28;20112;-72
2021/11/02 15:55:11;;;;;;;8.80;3.58;;;11.00;78.60;;;;;;4982537;28;20157;-74
2021/11/02 15:57:39;;;;;;;7.93;3.28;;;10.80;79.00;;;;;;4984702;28;20030;-72
2021/11/02 16:00:07;;;;;;;7.68;4.30;;;10.80;79.40;;;;;;4989785;28;20046;-73
2021/11/02 16:02:35;;;;;;;9.25;4.40;;;10.70;79.70;;;;;;4985826;28;20246;-71
2021/11/02 16:05:05;;;;;;;9.20;4.03;;;10.60;80.20;;;;;;4982153;28;20061;-70
2021/11/02 16:07:32;;;;;;;9.15;3.17;;;10.60;80.50;;;;;;4978702;28;20034;-74
2021/11/02 16:09:58;;;;;;;6.63;3.35;;;10.50;80.70;;;;;;4986840;28;20060;-72
2021/11/02 16:12:25;;;;;;;8.52;3.55;;;10.40;81.00;;;;;;4982965;28;20041;-74
2021/11/02 16:14:55;;;;;;;9.65;4.20;;;10.40;81.40;;;;;;4983510;28;20171;-76
2021/11/02 16:17:23;;;;;;;13.85;4.80;;;10.40;81.50;;;;;;4982299;28;20037;-74
2021/11/02 16:19:50;;;;;;;10.63;5.15;;;10.30;81.50;;;;;;4984475;28;20639;-74
2021/11/02 16:22:16;;;;;;;8.43;3.85;;;10.30;81.70;;;;;;4984162;28;20117;-76
2021/11/02 16:24:42;;;;;;;10.63;4.47;;;10.30;81.80;;;;;;4987118;28;20034;-73
2021/11/02 16:27:17;;;;;;;9.05;4.20;;;10.20;82.00;;;;;;4983137;28;20335;-71
2021/11/02 16:29:44;;;;;;;9.40;4.80;;;10.10;82.20;;;;;;5002075;28;20374;-73
2021/11/02 16:32:22;;;;;;;10.80;5.32;;;10.10;82.30;;;;;;4988821;28;20436;-75
2021/11/02 16:34:48;;;;;;;9.50;4.78;;;10.10;82.50;;;;;;4998799;28;20049;-71
2021/11/02 16:37:32;;;;;;;11.95;6.72;;;10.00;82.80;;;;;;4998513;28;20777;-70
2021/11/02 16:40:17;;;;;;;12.38;8.55;;;9.90;82.90;;;;;;5013994;28;20060;-70
2021/11/02 16:43:04;;;;;;;16.20;11.20;;;9.80;83.20;;;;;;5000087;28;20046;-70
2021/11/02 16:45:35;;;;;;;15.02;9.73;;;9.80;83.50;;;;;;4997316;28;20141;-70
2021/11/02 16:48:06;;;;;;;13.23;9.30;;;9.70;83.80;;;;;;4998207;28;20069;-70
2021/11/02 16:50:35;;;;;;;12.73;6.20;;;9.70;83.90;;;;;;4998887;28;20046;-71
2021/11/02 16:53:13;;;;;;;11.65;6.75;;;9.60;84.00;;;;;;5000148;28;20361;-70
2021/11/02 16:55:41;;;;;;;14.70;6.90;;;9.60;84.00;;;;;;4996481;28;20124;-74
2021/11/02 16:58:19;;;;;;;10.00;6.18;;;9.50;84.00;;;;;;4994747;28;20092;-72
2021/11/02 17:00:46;;;;;;;10.63;6.07;;;9.50;84.20;;;;;;4997529;28;20189;-77
2021/11/02 17:03:14;;;;;;;9.63;5.57;;;9.40;84.30;;;;;;4998942;28;20519;-79
2021/11/02 17:05:40;;;;;;;11.50;6.80;;;9.30;84.40;;;;;;4994144;28;20966;-76
2021/11/02 17:08:09;;;;;;;12.23;8.20;;;9.30;84.70;;;;;;4997582;28;20062;-75
2021/11/02 17:10:39;;;;;;;13.57;8.95;;;9.20;84.80;;;;;;5001724;28;20040;-74
2021/11/02 17:13:16;;;;;;;14.40;9.30;;;9.10;84.90;;;;;;5001227;28;20030;-72
2021/11/02 17:15:51;;;;;;;16.38;10.63;;;9.10;85.00;;;;;;5006786;28;20038;-72
2021/11/02 17:18:28;;;;;;;25.42;15.40;;;9.00;85.20;;;;;;5005580;28;20050;-72
2021/11/02 17:21:21;;;;;;;23.75;16.45;;;8.90;85.40;;;;;;5004578;28;20510;-72
2021/11/02 17:23:48;;;;;;;22.83;16.13;;;8.90;85.70;;;;;;5002895;28;20080;-74
2021/11/02 17:26:15;;;;;;;22.58;15.38;;;8.80;85.90;;;;;;5000439;28;20547;-72
2021/11/02 17:28:45;;;;;;;18.33;13.05;;;8.70;86.10;;;;;;5019472;28;20042;-73
2021/11/02 17:31:11;;;;;;;17.02;9.00;;;8.70;86.20;;;;;;5004594;28;20025;-74
2021/11/02 17:33:38;;;;;;;14.30;8.68;;;8.60;86.20;;;;;;5001317;28;20354;-74
2021/11/02 17:36:06;;;;;;;16.05;8.88;;;8.50;86.30;;;;;;5005236;28;20044;-74
2021/11/02 17:38:37;;;;;;;13.25;9.02;;;8.50;86.50;;;;;;5003461;28;20029;-73
2021/11/02 17:41:03;;;;;;;15.70;10.48;;;8.40;86.60;;;;;;5005533;28;20026;-75
2021/11/02 17:43:30;;;;;;;21.10;14.80;;;8.30;86.70;;;;;;5019899;28;20092;-73
2021/11/02 17:45:56;;;;;;;17.77;12.85;;;8.30;86.90;;;;;;5007873;28;20080;-73
2021/11/02 17:48:23;;;;;;;20.25;13.95;;;8.20;86.90;;;;;;5003747;28;20381;-74
2021/11/02 17:50:49;;;;;;;17.63;13.15;;;8.20;87.10;;;;;;5006562;28;20484;-72
2021/11/02 17:53:17;;;;;;;17.63;13.73;;;8.20;87.20;;;;;;5001412;28;20032;-75
2021/11/02 17:55:44;;;;;;;17.27;13.38;;;8.10;87.30;;;;;;5000822;28;20120;-72
2021/11/02 17:58:09;;;;;;;16.38;13.45;;;8.10;87.40;;;;;;5003721;28;20053;-72
2021/11/02 18:00:37;;;;;;;17.63;13.60;;;8.10;87.40;;;;;;5004080;28;20033;-72